sensor_id;sensor_type;location;lat;lon;timestamp;temperature;humidity
17053;DHT22;8643;48.824;11.422;2024-02-14T00:00:13;0.20;99.90
17053;DHT22;8643;48.824;11.422;2024-02-14T00:02:46;0.20;99.90
17053;DHT22;8643;48.824;11.422;2024-02-14T00:05:17;0.20;99.90
17053;DHT22;8643;48.824;11.422;2024-02-14T00:07:45;0.20;99.90
17053;DHT22;8643;48.824;11.422;2024-02-14T00:10:14;0.20;99.90
17053;DHT22;8643;48.824;11.422;2024-02-14T00:12:42;0.20;99.90
17053;DHT22;8643;48.824;11.422;2024-02-14T00:15:11;0.30;99.90
17053;DHT22;8643;48.824;11.422;2024-02-14T00:17:40;0.30;99.90
17053;DHT22;8643;48.824;11.422;2024-02-14T00:20:12;0.20;99.90
17053;DHT22;8643;48.824;11.422;2024-02-14T00:22:40;0.20;99.90
17053;DHT22;8643;48.824;11.422;2024-02-14T00:25:09;0.10;99.90
17053;DHT22;8643;48.824;11.422;2024-02-14T00:27:38;0.10;99.90
17053;DHT22;8643;48.824;11.422;2024-02-14T00:30:07;0.00;99.90
17053;DHT22;8643;48.824;11.422;2024-02-14T00:32:37;0.00;99.90
17053;DHT22;8643;48.824;11.422;2024-02-14T00:35:06;0.00;99.90
17053;DHT22;8643;48.824;11.422;2024-02-14T00:37:37;0.10;99.90
17053;DHT22;8643;48.824;11.422;2024-02-14T00:40:07;0.10;99.90
17053;DHT22;8643;48.824;11.422;2024-02-14T00:42:36;0.20;99.90
17053;DHT22;8643;48.824;11.422;2024-02-14T00:45:05;0.30;99.90
17053;DHT22;8643;48.824;11.422;2024-02-14T00:47:36;0.40;99.90
17053;DHT22;8643;48.824;11.422;2024-02-14T00:50:05;0.40;99.90
17053;DHT22;8643;48.824;11.422;2024-02-14T00:52:34;0.50;99.90
17053;DHT22;8643;48.824;11.422;2024-02-14T00:55:04;0.50;99.90
17053;DHT22;8643;48.824;11.422;2024-02-14T00:57:33;0.60;99.90
17053;DHT22;8643;48.824;11.422;2024-02-14T01:00:02;0.70;99.90
17053;DHT22;8643;48.824;11.422;2024-02-14T01:02:33;0.70;99.90
17053;DHT22;8643;48.824;11.422;2024-02-14T01:05:01;0.70;99.90
17053;DHT22;8643;48.824;11.422;2024-02-14T01:07:31;0.90;99.90
17053;DHT22;8643;48.824;11.422;2024-02-14T01:10:02;0.90;99.90
17053;DHT22;8643;48.824;11.422;2024-02-14T01:12:31;0.80;99.90
17053;DHT22;8643;48.824;11.422;2024-02-14T01:15:00;0.80;99.90
17053;DHT22;8643;48.824;11.422;2024-02-14T01:17:29;0.90;99.90
17053;DHT22;8643;48.824;11.422;2024-02-14T01:19:58;0.90;99.90
17053;DHT22;8643;48.824;11.422;2024-02-14T01:22:26;1.00;99.90
17053;DHT22;8643;48.824;11.422;2024-02-14T01:24:55;1.00;99.90
17053;DHT22;8643;48.824;11.422;2024-02-14T01:27:26;0.90;99.90
17053;DHT22;8643;48.824;11.422;2024-02-14T01:29:55;1.00;99.90
17053;DHT22;8643;48.824;11.422;2024-02-14T01:32:24;1.10;99.90
17053;DHT22;8643;48.824;11.422;2024-02-14T01:34:53;1.00;99.90
17053;DHT22;8643;48.824;11.422;2024-02-14T01:39:50;1.00;99.90
17053;DHT22;8643;48.824;11.422;2024-02-14T01:42:19;0.90;99.90
17053;DHT22;8643;48.824;11.422;2024-02-14T01:44:48;0.80;99.90
17053;DHT22;8643;48.824;11.422;2024-02-14T01:47:17;0.70;99.90
17053;DHT22;8643;48.824;11.422;2024-02-14T01:49:47;0.70;99.90
17053;DHT22;8643;48.824;11.422;2024-02-14T01:52:16;0.60;99.90
17053;DHT22;8643;48.824;11.422;2024-02-14T01:54:44;0.60;99.90
17053;DHT22;8643;48.824;11.422;2024-02-14T01:57:13;0.50;99.90
17053;DHT22;8643;48.824;11.422;2024-02-14T01:59:42;0.50;99.90
17053;DHT22;8643;48.824;11.422;2024-02-14T02:02:13;0.50;99.90
17053;DHT22;8643;48.824;11.422;2024-02-14T02:04:43;0.30;99.90
17053;DHT22;8643;48.824;11.422;2024-02-14T02:07:11;0.40;99.90
17053;DHT22;8643;48.824;11.422;2024-02-14T02:09:40;0.30;99.90
17053;DHT22;8643;48.824;11.422;2024-02-14T02:12:09;0.30;99.90
17053;DHT22;8643;48.824;11.422;2024-02-14T02:14:37;0.20;99.90
17053;DHT22;8643;48.824;11.422;2024-02-14T02:17:07;0.20;99.90
17053;DHT22;8643;48.824;11.422;2024-02-14T02:19:40;0.20;99.90
17053;DHT22;8643;48.824;11.422;2024-02-14T02:22:10;0.30;99.90
17053;DHT22;8643;48.824;11.422;2024-02-14T02:24:40;0.30;99.90
17053;DHT22;8643;48.824;11.422;2024-02-14T02:29:37;0.30;99.90
17053;DHT22;8643;48.824;11.422;2024-02-14T02:32:06;0.30;99.90
17053;DHT22;8643;48.824;11.422;2024-02-14T02:34:36;-0.10;99.90
17053;DHT22;8643;48.824;11.422;2024-02-14T02:37:06;0.20;99.90
17053;DHT22;8643;48.824;11.422;2024-02-14T02:39:36;0.20;99.90
17053;DHT22;8643;48.824;11.422;2024-02-14T02:42:06;0.20;99.90
17053;DHT22;8643;48.824;11.422;2024-02-14T02:44:38;0.20;99.90
17053;DHT22;8643;48.824;11.422;2024-02-14T02:47:07;0.30;99.90
17053;DHT22;8643;48.824;11.422;2024-02-14T02:49:37;0.20;99.90
17053;DHT22;8643;48.824;11.422;2024-02-14T02:52:06;0.20;99.90
17053;DHT22;8643;48.824;11.422;2024-02-14T02:54:34;0.10;99.90
17053;DHT22;8643;48.824;11.422;2024-02-14T02:57:03;0.10;99.90
17053;DHT22;8643;48.824;11.422;2024-02-14T02:59:34;0.10;99.90
17053;DHT22;8643;48.824;11.422;2024-02-14T03:02:03;0.10;99.90
17053;DHT22;8643;48.824;11.422;2024-02-14T03:04:35;0.10;99.90
17053;DHT22;8643;48.824;11.422;2024-02-14T03:07:18;0.10;99.90
17053;DHT22;8643;48.824;11.422;2024-02-14T03:09:47;0.00;99.90
17053;DHT22;8643;48.824;11.422;2024-02-14T03:12:16;-0.10;99.90
17053;DHT22;8643;48.824;11.422;2024-02-14T03:14:47;-0.10;99.90
17053;DHT22;8643;48.824;11.422;2024-02-14T03:17:16;-0.20;99.90
17053;DHT22;8643;48.824;11.422;2024-02-14T03:19:45;-0.20;99.90
17053;DHT22;8643;48.824;11.422;2024-02-14T03:22:15;-0.20;99.90
17053;DHT22;8643;48.824;11.422;2024-02-14T03:24:47;-0.30;99.90
17053;DHT22;8643;48.824;11.422;2024-02-14T03:27:16;-0.40;99.90
17053;DHT22;8643;48.824;11.422;2024-02-14T03:29:47;-0.40;99.90
17053;DHT22;8643;48.824;11.422;2024-02-14T03:32:18;-0.50;99.90
17053;DHT22;8643;48.824;11.422;2024-02-14T03:34:46;-0.40;99.90
17053;DHT22;8643;48.824;11.422;2024-02-14T03:39:45;-0.20;99.90
17053;DHT22;8643;48.824;11.422;2024-02-14T03:42:14;-0.20;99.90
17053;DHT22;8643;48.824;11.422;2024-02-14T03:44:43;-0.10;99.90
17053;DHT22;8643;48.824;11.422;2024-02-14T03:47:14;-0.10;99.90
17053;DHT22;8643;48.824;11.422;2024-02-14T03:49:42;-0.10;99.90
17053;DHT22;8643;48.824;11.422;2024-02-14T03:52:11;-0.20;99.90
17053;DHT22;8643;48.824;11.422;2024-02-14T03:54:39;-0.30;99.90
17053;DHT22;8643;48.824;11.422;2024-02-14T03:57:08;-0.30;99.90
17053;DHT22;8643;48.824;11.422;2024-02-14T03:59:37;-0.40;99.90
17053;DHT22;8643;48.824;11.422;2024-02-14T04:02:06;-0.40;99.90
17053;DHT22;8643;48.824;11.422;2024-02-14T04:04:40;-0.50;99.90
17053;DHT22;8643;48.824;11.422;2024-02-14T04:07:11;-0.40;99.90
17053;DHT22;8643;48.824;11.422;2024-02-14T04:09:39;-0.50;99.90
17053;DHT22;8643;48.824;11.422;2024-02-14T04:12:09;-0.50;99.90
17053;DHT22;8643;48.824;11.422;2024-02-14T04:14:38;-0.50;99.90
17053;DHT22;8643;48.824;11.422;2024-02-14T04:17:07;-0.50;99.90
17053;DHT22;8643;48.824;11.422;2024-02-14T04:19:35;-0.40;99.90
17053;DHT22;8643;48.824;11.422;2024-02-14T04:22:05;-0.50;99.90
17053;DHT22;8643;48.824;11.422;2024-02-14T04:27:04;-0.50;99.90
17053;DHT22;8643;48.824;11.422;2024-02-14T04:29:33;-0.60;99.90
17053;DHT22;8643;48.824;11.422;2024-02-14T04:32:02;-0.60;99.90
17053;DHT22;8643;48.824;11.422;2024-02-14T04:34:31;-0.50;99.90
17053;DHT22;8643;48.824;11.422;2024-02-14T04:37:02;-0.50;99.90
17053;DHT22;8643;48.824;11.422;2024-02-14T04:39:37;-0.40;99.90
17053;DHT22;8643;48.824;11.422;2024-02-14T04:42:05;-0.30;99.90
17053;DHT22;8643;48.824;11.422;2024-02-14T04:44:34;-0.20;99.90
17053;DHT22;8643;48.824;11.422;2024-02-14T04:47:03;-0.10;99.90
17053;DHT22;8643;48.824;11.422;2024-02-14T04:49:32;0.00;99.90
17053;DHT22;8643;48.824;11.422;2024-02-14T04:52:04;0.10;99.90
17053;DHT22;8643;48.824;11.422;2024-02-14T04:54:34;0.20;99.90
17053;DHT22;8643;48.824;11.422;2024-02-14T04:57:03;0.20;99.90
17053;DHT22;8643;48.824;11.422;2024-02-14T05:02:00;0.30;99.90
17053;DHT22;8643;48.824;11.422;2024-02-14T05:04:29;0.50;99.90
17053;DHT22;8643;48.824;11.422;2024-02-14T05:09:28;0.60;99.90
17053;DHT22;8643;48.824;11.422;2024-02-14T05:11:57;0.60;99.90
17053;DHT22;8643;48.824;11.422;2024-02-14T05:14:26;0.70;99.90
17053;DHT22;8643;48.824;11.422;2024-02-14T05:19:28;0.80;99.90
17053;DHT22;8643;48.824;11.422;2024-02-14T05:21:57;0.80;99.90
17053;DHT22;8643;48.824;11.422;2024-02-14T05:24:26;0.90;99.90
17053;DHT22;8643;48.824;11.422;2024-02-14T05:26:57;0.90;99.90
17053;DHT22;8643;48.824;11.422;2024-02-14T05:29:25;0.90;99.90
17053;DHT22;8643;48.824;11.422;2024-02-14T05:31:54;1.00;99.90
17053;DHT22;8643;48.824;11.422;2024-02-14T05:34:23;1.00;99.90
17053;DHT22;8643;48.824;11.422;2024-02-14T05:36:51;1.10;99.90
17053;DHT22;8643;48.824;11.422;2024-02-14T05:39:20;1.20;99.90
17053;DHT22;8643;48.824;11.422;2024-02-14T05:41:49;1.10;99.90
17053;DHT22;8643;48.824;11.422;2024-02-14T05:44:19;1.30;99.90
17053;DHT22;8643;48.824;11.422;2024-02-14T05:46:49;1.30;99.90
17053;DHT22;8643;48.824;11.422;2024-02-14T05:49:18;1.30;99.90
17053;DHT22;8643;48.824;11.422;2024-02-14T05:51:46;1.40;99.90
17053;DHT22;8643;48.824;11.422;2024-02-14T05:54:15;1.40;99.90
17053;DHT22;8643;48.824;11.422;2024-02-14T05:56:43;1.30;99.90
17053;DHT22;8643;48.824;11.422;2024-02-14T05:59:12;1.40;99.90
17053;DHT22;8643;48.824;11.422;2024-02-14T06:01:42;1.40;99.90
17053;DHT22;8643;48.824;11.422;2024-02-14T06:04:10;1.50;99.90
17053;DHT22;8643;48.824;11.422;2024-02-14T06:06:39;1.50;99.90
17053;DHT22;8643;48.824;11.422;2024-02-14T06:09:07;1.50;99.90
17053;DHT22;8643;48.824;11.422;2024-02-14T06:11:38;1.50;99.90
17053;DHT22;8643;48.824;11.422;2024-02-14T06:14:08;1.40;99.90
17053;DHT22;8643;48.824;11.422;2024-02-14T06:16:36;1.40;99.90
17053;DHT22;8643;48.824;11.422;2024-02-14T06:19:06;1.40;99.90
17053;DHT22;8643;48.824;11.422;2024-02-14T06:21:36;1.40;99.90
17053;DHT22;8643;48.824;11.422;2024-02-14T06:24:05;1.50;99.90
17053;DHT22;8643;48.824;11.422;2024-02-14T06:26:34;1.50;99.90
17053;DHT22;8643;48.824;11.422;2024-02-14T06:29:02;1.50;99.90
17053;DHT22;8643;48.824;11.422;2024-02-14T06:31:33;1.50;99.90
17053;DHT22;8643;48.824;11.422;2024-02-14T06:34:01;1.60;99.90
17053;DHT22;8643;48.824;11.422;2024-02-14T06:36:32;1.50;99.90
17053;DHT22;8643;48.824;11.422;2024-02-14T06:39:00;1.60;99.90
17053;DHT22;8643;48.824;11.422;2024-02-14T06:41:29;1.60;99.90
17053;DHT22;8643;48.824;11.422;2024-02-14T06:43:59;1.60;99.90
17053;DHT22;8643;48.824;11.422;2024-02-14T06:46:27;1.70;99.90
17053;DHT22;8643;48.824;11.422;2024-02-14T06:51:25;1.70;99.90
17053;DHT22;8643;48.824;11.422;2024-02-14T06:53:54;1.70;99.90
17053;DHT22;8643;48.824;11.422;2024-02-14T06:56:23;1.70;99.90
17053;DHT22;8643;48.824;11.422;2024-02-14T06:58:51;1.70;99.90
17053;DHT22;8643;48.824;11.422;2024-02-14T07:01:26;1.70;99.90
17053;DHT22;8643;48.824;11.422;2024-02-14T07:03:56;1.70;99.90
17053;DHT22;8643;48.824;11.422;2024-02-14T07:06:25;1.80;99.90
17053;DHT22;8643;48.824;11.422;2024-02-14T07:08:54;1.90;99.90
17053;DHT22;8643;48.824;11.422;2024-02-14T07:11:23;1.80;99.90
17053;DHT22;8643;48.824;11.422;2024-02-14T07:13:52;1.80;99.90
17053;DHT22;8643;48.824;11.422;2024-02-14T07:18:49;1.90;99.90
17053;DHT22;8643;48.824;11.422;2024-02-14T07:21:18;1.90;99.90
17053;DHT22;8643;48.824;11.422;2024-02-14T07:23:46;2.10;99.90
17053;DHT22;8643;48.824;11.422;2024-02-14T07:26:16;1.90;99.90
17053;DHT22;8643;48.824;11.422;2024-02-14T07:28:44;1.90;99.90
17053;DHT22;8643;48.824;11.422;2024-02-14T07:31:12;2.00;99.90
17053;DHT22;8643;48.824;11.422;2024-02-14T07:36:11;2.30;99.90
17053;DHT22;8643;48.824;11.422;2024-02-14T07:38:39;2.30;99.90
17053;DHT22;8643;48.824;11.422;2024-02-14T07:41:09;2.40;99.90
17053;DHT22;8643;48.824;11.422;2024-02-14T07:43:39;2.40;99.90
17053;DHT22;8643;48.824;11.422;2024-02-14T07:46:08;2.40;99.90
17053;DHT22;8643;48.824;11.422;2024-02-14T07:48:36;2.40;99.90
17053;DHT22;8643;48.824;11.422;2024-02-14T07:51:07;2.50;99.90
17053;DHT22;8643;48.824;11.422;2024-02-14T07:53:36;2.50;99.90
17053;DHT22;8643;48.824;11.422;2024-02-14T07:56:05;0.60;99.90
17053;DHT22;8643;48.824;11.422;2024-02-14T07:58:34;2.50;99.90
17053;DHT22;8643;48.824;11.422;2024-02-14T08:01:04;2.60;99.90
17053;DHT22;8643;48.824;11.422;2024-02-14T08:03:32;2.60;99.90
17053;DHT22;8643;48.824;11.422;2024-02-14T08:06:01;2.80;99.90
17053;DHT22;8643;48.824;11.422;2024-02-14T08:08:30;2.90;99.90
17053;DHT22;8643;48.824;11.422;2024-02-14T08:10:58;3.00;99.90
17053;DHT22;8643;48.824;11.422;2024-02-14T08:13:26;3.10;99.90
17053;DHT22;8643;48.824;11.422;2024-02-14T08:15:56;3.20;99.90
17053;DHT22;8643;48.824;11.422;2024-02-14T08:18:26;3.20;99.90
17053;DHT22;8643;48.824;11.422;2024-02-14T08:20:55;3.20;99.90
17053;DHT22;8643;48.824;11.422;2024-02-14T08:23:24;3.40;99.90
17053;DHT22;8643;48.824;11.422;2024-02-14T08:25:52;3.60;99.90
17053;DHT22;8643;48.824;11.422;2024-02-14T08:28:21;3.80;99.90
17053;DHT22;8643;48.824;11.422;2024-02-14T08:30:49;4.10;99.90
17053;DHT22;8643;48.824;11.422;2024-02-14T08:33:18;4.10;99.90
17053;DHT22;8643;48.824;11.422;2024-02-14T08:35:49;4.60;99.90
17053;DHT22;8643;48.824;11.422;2024-02-14T08:38:17;5.00;99.90
17053;DHT22;8643;48.824;11.422;2024-02-14T08:40:47;5.40;99.90
17053;DHT22;8643;48.824;11.422;2024-02-14T08:43:15;5.70;99.90
17053;DHT22;8643;48.824;11.422;2024-02-14T08:45:44;5.70;99.90
17053;DHT22;8643;48.824;11.422;2024-02-14T08:48:12;5.90;99.90
17053;DHT22;8643;48.824;11.422;2024-02-14T08:50:41;5.80;99.90
17053;DHT22;8643;48.824;11.422;2024-02-14T08:53:12;5.80;99.90
17053;DHT22;8643;48.824;11.422;2024-02-14T08:55:42;4.00;99.90
17053;DHT22;8643;48.824;11.422;2024-02-14T08:58:11;5.60;99.90
17053;DHT22;8643;48.824;11.422;2024-02-14T09:00:39;5.40;99.90
17053;DHT22;8643;48.824;11.422;2024-02-14T09:03:08;5.30;99.90
17053;DHT22;8643;48.824;11.422;2024-02-14T09:05:36;4.40;99.90
17053;DHT22;8643;48.824;11.422;2024-02-14T09:08:06;5.00;99.90
17053;DHT22;8643;48.824;11.422;2024-02-14T09:10:36;4.90;99.90
17053;DHT22;8643;48.824;11.422;2024-02-14T09:13:05;4.90;99.90
17053;DHT22;8643;48.824;11.422;2024-02-14T09:15:34;4.90;99.90
17053;DHT22;8643;48.824;11.422;2024-02-14T09:18:03;4.90;99.90
17053;DHT22;8643;48.824;11.422;2024-02-14T09:20:32;5.00;99.90
17053;DHT22;8643;48.824;11.422;2024-02-14T09:23:01;4.90;99.90
17053;DHT22;8643;48.824;11.422;2024-02-14T09:25:30;4.90;99.90
17053;DHT22;8643;48.824;11.422;2024-02-14T09:28:00;4.90;99.90
17053;DHT22;8643;48.824;11.422;2024-02-14T09:30:29;4.90;99.90
17053;DHT22;8643;48.824;11.422;2024-02-14T09:33:05;4.90;99.90
17053;DHT22;8643;48.824;11.422;2024-02-14T09:38:04;5.00;99.90
17053;DHT22;8643;48.824;11.422;2024-02-14T09:40:33;5.20;99.90
17053;DHT22;8643;48.824;11.422;2024-02-14T09:43:10;5.20;99.90
17053;DHT22;8643;48.824;11.422;2024-02-14T09:45:45;5.30;99.90
17053;DHT22;8643;48.824;11.422;2024-02-14T09:48:15;5.50;99.90
17053;DHT22;8643;48.824;11.422;2024-02-14T09:50:45;5.70;99.90
17053;DHT22;8643;48.824;11.422;2024-02-14T09:53:17;6.00;99.90
17053;DHT22;8643;48.824;11.422;2024-02-14T09:55:46;6.40;99.90
17053;DHT22;8643;48.824;11.422;2024-02-14T09:58:17;7.00;99.90
17053;DHT22;8643;48.824;11.422;2024-02-14T10:00:45;7.40;99.90
17053;DHT22;8643;48.824;11.422;2024-02-14T10:03:14;7.90;99.90
17053;DHT22;8643;48.824;11.422;2024-02-14T10:05:43;8.50;99.90
17053;DHT22;8643;48.824;11.422;2024-02-14T10:08:11;8.60;99.90
17053;DHT22;8643;48.824;11.422;2024-02-14T10:10:40;9.20;99.90
17053;DHT22;8643;48.824;11.422;2024-02-14T10:13:08;9.50;99.90
17053;DHT22;8643;48.824;11.422;2024-02-14T10:15:39;9.50;99.90
17053;DHT22;8643;48.824;11.422;2024-02-14T10:18:07;9.80;99.90
17053;DHT22;8643;48.824;11.422;2024-02-14T10:20:37;10.30;99.90
17053;DHT22;8643;48.824;11.422;2024-02-14T10:23:10;10.00;99.90
17053;DHT22;8643;48.824;11.422;2024-02-14T10:25:39;9.70;99.90
17053;DHT22;8643;48.824;11.422;2024-02-14T10:28:10;9.60;99.90
17053;DHT22;8643;48.824;11.422;2024-02-14T10:30:40;9.40;99.90
17053;DHT22;8643;48.824;11.422;2024-02-14T10:33:09;9.10;99.90
17053;DHT22;8643;48.824;11.422;2024-02-14T10:35:52;8.80;99.90
17053;DHT22;8643;48.824;11.422;2024-02-14T10:38:30;8.60;99.90
17053;DHT22;8643;48.824;11.422;2024-02-14T10:41:01;8.80;99.90
17053;DHT22;8643;48.824;11.422;2024-02-14T10:43:33;9.00;99.90
17053;DHT22;8643;48.824;11.422;2024-02-14T10:46:08;9.20;99.90
17053;DHT22;8643;48.824;11.422;2024-02-14T10:48:43;9.20;99.90
17053;DHT22;8643;48.824;11.422;2024-02-14T10:51:13;9.40;99.90
17053;DHT22;8643;48.824;11.422;2024-02-14T10:53:45;9.30;99.90
17053;DHT22;8643;48.824;11.422;2024-02-14T10:56:18;9.30;99.90
17053;DHT22;8643;48.824;11.422;2024-02-14T10:58:48;9.30;99.90
17053;DHT22;8643;48.824;11.422;2024-02-14T11:01:19;9.30;99.90
17053;DHT22;8643;48.824;11.422;2024-02-14T11:03:48;10.00;99.90
17053;DHT22;8643;48.824;11.422;2024-02-14T11:06:17;10.00;99.90
17053;DHT22;8643;48.824;11.422;2024-02-14T11:08:56;10.00;99.90
17053;DHT22;8643;48.824;11.422;2024-02-14T11:11:27;9.70;99.90
17053;DHT22;8643;48.824;11.422;2024-02-14T11:13:57;9.70;99.90
17053;DHT22;8643;48.824;11.422;2024-02-14T11:16:27;9.50;99.90
17053;DHT22;8643;48.824;11.422;2024-02-14T11:19:06;9.40;99.90
17053;DHT22;8643;48.824;11.422;2024-02-14T11:21:39;9.30;99.90
17053;DHT22;8643;48.824;11.422;2024-02-14T11:24:12;9.30;99.90
17053;DHT22;8643;48.824;11.422;2024-02-14T11:26:46;9.20;99.90
17053;DHT22;8643;48.824;11.422;2024-02-14T11:29:16;9.20;99.90
17053;DHT22;8643;48.824;11.422;2024-02-14T11:31:59;9.00;99.90
17053;DHT22;8643;48.824;11.422;2024-02-14T11:34:29;9.00;99.90
17053;DHT22;8643;48.824;11.422;2024-02-14T11:37:04;8.90;99.90
17053;DHT22;8643;48.824;11.422;2024-02-14T11:39:34;8.90;99.90
17053;DHT22;8643;48.824;11.422;2024-02-14T11:44:31;8.60;99.90
17053;DHT22;8643;48.824;11.422;2024-02-14T11:47:01;8.50;99.90
17053;DHT22;8643;48.824;11.422;2024-02-14T11:49:32;8.30;99.90
17053;DHT22;8643;48.824;11.422;2024-02-14T11:52:00;8.10;99.90
17053;DHT22;8643;48.824;11.422;2024-02-14T11:57:00;8.00;99.90
17053;DHT22;8643;48.824;11.422;2024-02-14T11:59:29;8.00;99.90
17053;DHT22;8643;48.824;11.422;2024-02-14T12:01:58;8.00;99.90
17053;DHT22;8643;48.824;11.422;2024-02-14T12:04:30;8.30;99.90
17053;DHT22;8643;48.824;11.422;2024-02-14T12:07:00;8.50;99.90
17053;DHT22;8643;48.824;11.422;2024-02-14T12:09:30;8.50;99.90
17053;DHT22;8643;48.824;11.422;2024-02-14T12:11:59;8.50;99.90
17053;DHT22;8643;48.824;11.422;2024-02-14T12:14:28;8.60;99.90
17053;DHT22;8643;48.824;11.422;2024-02-14T12:17:01;8.70;99.90
17053;DHT22;8643;48.824;11.422;2024-02-14T12:19:30;8.90;99.90
17053;DHT22;8643;48.824;11.422;2024-02-14T12:22:01;8.90;99.90
17053;DHT22;8643;48.824;11.422;2024-02-14T12:24:30;9.00;99.90
17053;DHT22;8643;48.824;11.422;2024-02-14T12:26:59;9.10;99.90
17053;DHT22;8643;48.824;11.422;2024-02-14T12:29:27;9.90;99.90
17053;DHT22;8643;48.824;11.422;2024-02-14T12:32:05;11.20;99.90
17053;DHT22;8643;48.824;11.422;2024-02-14T12:34:34;12.20;99.90
17053;DHT22;8643;48.824;11.422;2024-02-14T12:37:04;13.00;99.90
17053;DHT22;8643;48.824;11.422;2024-02-14T12:39:34;13.40;99.90
17053;DHT22;8643;48.824;11.422;2024-02-14T12:42:06;13.70;99.90
17053;DHT22;8643;48.824;11.422;2024-02-14T12:44:35;13.70;99.90
17053;DHT22;8643;48.824;11.422;2024-02-14T12:47:06;14.20;99.90
17053;DHT22;8643;48.824;11.422;2024-02-14T12:49:35;14.50;99.90
17053;DHT22;8643;48.824;11.422;2024-02-14T12:52:04;14.50;99.90
17053;DHT22;8643;48.824;11.422;2024-02-14T12:54:32;15.10;99.90
17053;DHT22;8643;48.824;11.422;2024-02-14T12:57:01;15.30;99.90
17053;DHT22;8643;48.824;11.422;2024-02-14T12:59:30;15.30;99.90
17053;DHT22;8643;48.824;11.422;2024-02-14T13:01:58;15.40;99.90
17053;DHT22;8643;48.824;11.422;2024-02-14T13:04:29;14.60;99.90
17053;DHT22;8643;48.824;11.422;2024-02-14T13:06:59;14.00;99.90
17053;DHT22;8643;48.824;11.422;2024-02-14T13:09:27;13.20;99.90
17053;DHT22;8643;48.824;11.422;2024-02-14T13:11:56;12.60;99.90
17053;DHT22;8643;48.824;11.422;2024-02-14T13:14:25;12.10;99.90
17053;DHT22;8643;48.824;11.422;2024-02-14T13:16:53;12.10;99.90
17053;DHT22;8643;48.824;11.422;2024-02-14T13:21:53;11.50;99.90
17053;DHT22;8643;48.824;11.422;2024-02-14T13:24:22;11.50;99.90
17053;DHT22;8643;48.824;11.422;2024-02-14T13:26:51;11.50;99.90
17053;DHT22;8643;48.824;11.422;2024-02-14T13:29:19;11.80;99.90
17053;DHT22;8643;48.824;11.422;2024-02-14T13:31:47;11.80;99.90
17053;DHT22;8643;48.824;11.422;2024-02-14T13:34:17;11.80;99.90
17053;DHT22;8643;48.824;11.422;2024-02-14T13:36:46;11.60;99.90
17053;DHT22;8643;48.824;11.422;2024-02-14T13:39:17;11.60;99.90
17053;DHT22;8643;48.824;11.422;2024-02-14T13:41:45;11.40;99.90
17053;DHT22;8643;48.824;11.422;2024-02-14T13:46:44;11.00;99.90
17053;DHT22;8643;48.824;11.422;2024-02-14T13:49:13;11.00;99.90
17053;DHT22;8643;48.824;11.422;2024-02-14T13:51:45;10.80;99.90
17053;DHT22;8643;48.824;11.422;2024-02-14T13:54:14;10.80;99.90
17053;DHT22;8643;48.824;11.422;2024-02-14T13:56:44;10.80;99.90
17053;DHT22;8643;48.824;11.422;2024-02-14T13:59:15;10.90;99.90
17053;DHT22;8643;48.824;11.422;2024-02-14T14:01:45;10.80;99.90
17053;DHT22;8643;48.824;11.422;2024-02-14T14:04:15;10.90;99.90
17053;DHT22;8643;48.824;11.422;2024-02-14T14:06:44;10.80;99.90
17053;DHT22;8643;48.824;11.422;2024-02-14T14:09:14;10.90;99.90
17053;DHT22;8643;48.824;11.422;2024-02-14T14:11:44;10.80;99.90
17053;DHT22;8643;48.824;11.422;2024-02-14T14:14:17;10.70;99.90
17053;DHT22;8643;48.824;11.422;2024-02-14T14:16:46;10.70;99.90
17053;DHT22;8643;48.824;11.422;2024-02-14T14:19:15;10.70;99.90
17053;DHT22;8643;48.824;11.422;2024-02-14T14:21:43;10.70;99.90
17053;DHT22;8643;48.824;11.422;2024-02-14T14:24:12;10.60;99.90
17053;DHT22;8643;48.824;11.422;2024-02-14T14:26:43;10.60;99.90
17053;DHT22;8643;48.824;11.422;2024-02-14T14:29:12;10.60;99.90
17053;DHT22;8643;48.824;11.422;2024-02-14T14:31:41;10.50;99.90
17053;DHT22;8643;48.824;11.422;2024-02-14T14:34:09;10.50;99.90
17053;DHT22;8643;48.824;11.422;2024-02-14T14:36:38;10.40;99.90
17053;DHT22;8643;48.824;11.422;2024-02-14T14:39:08;10.50;99.90
17053;DHT22;8643;48.824;11.422;2024-02-14T14:41:38;10.40;99.90
17053;DHT22;8643;48.824;11.422;2024-02-14T14:44:10;10.50;99.90
17053;DHT22;8643;48.824;11.422;2024-02-14T14:46:39;9.10;99.90
17053;DHT22;8643;48.824;11.422;2024-02-14T14:49:09;10.30;99.90
17053;DHT22;8643;48.824;11.422;2024-02-14T14:51:38;10.30;99.90
17053;DHT22;8643;48.824;11.422;2024-02-14T14:54:06;10.20;99.90
17053;DHT22;8643;48.824;11.422;2024-02-14T14:56:35;9.20;99.90
17053;DHT22;8643;48.824;11.422;2024-02-14T14:59:03;10.20;99.90
17053;DHT22;8643;48.824;11.422;2024-02-14T15:01:34;10.20;99.90
17053;DHT22;8643;48.824;11.422;2024-02-14T15:04:03;10.20;99.90
17053;DHT22;8643;48.824;11.422;2024-02-14T15:06:33;10.20;99.90
17053;DHT22;8643;48.824;11.422;2024-02-14T15:09:02;10.20;99.90
17053;DHT22;8643;48.824;11.422;2024-02-14T15:11:31;10.40;99.90
17053;DHT22;8643;48.824;11.422;2024-02-14T15:13:59;10.40;99.90
17053;DHT22;8643;48.824;11.422;2024-02-14T15:16:28;10.60;99.90
17053;DHT22;8643;48.824;11.422;2024-02-14T15:18:59;10.50;99.90
17053;DHT22;8643;48.824;11.422;2024-02-14T15:21:28;10.70;99.90
17053;DHT22;8643;48.824;11.422;2024-02-14T15:23:56;10.80;99.90
17053;DHT22;8643;48.824;11.422;2024-02-14T15:26:25;10.70;99.90
17053;DHT22;8643;48.824;11.422;2024-02-14T15:28:53;10.70;99.90
17053;DHT22;8643;48.824;11.422;2024-02-14T15:31:43;10.80;99.90
17053;DHT22;8643;48.824;11.422;2024-02-14T15:34:31;10.80;99.90
17053;DHT22;8643;48.824;11.422;2024-02-14T15:37:00;10.80;99.90
17053;DHT22;8643;48.824;11.422;2024-02-14T15:39:29;10.80;99.90
17053;DHT22;8643;48.824;11.422;2024-02-14T15:41:57;10.80;99.90
17053;DHT22;8643;48.824;11.422;2024-02-14T15:44:26;10.70;99.90
17053;DHT22;8643;48.824;11.422;2024-02-14T15:46:54;10.60;99.90
17053;DHT22;8643;48.824;11.422;2024-02-14T15:49:22;10.60;99.90
17053;DHT22;8643;48.824;11.422;2024-02-14T15:51:55;10.50;99.90
17053;DHT22;8643;48.824;11.422;2024-02-14T15:54:24;10.50;99.90
17053;DHT22;8643;48.824;11.422;2024-02-14T15:56:52;10.50;99.90
17053;DHT22;8643;48.824;11.422;2024-02-14T15:59:21;10.40;99.90
17053;DHT22;8643;48.824;11.422;2024-02-14T16:01:49;10.30;99.90
17053;DHT22;8643;48.824;11.422;2024-02-14T16:04:18;10.30;99.90
17053;DHT22;8643;48.824;11.422;2024-02-14T16:06:47;10.10;99.90
17053;DHT22;8643;48.824;11.422;2024-02-14T16:09:17;10.00;99.90
17053;DHT22;8643;48.824;11.422;2024-02-14T16:11:45;10.10;99.90
17053;DHT22;8643;48.824;11.422;2024-02-14T16:14:14;10.00;99.90
17053;DHT22;8643;48.824;11.422;2024-02-14T16:16:44;10.00;99.90
17053;DHT22;8643;48.824;11.422;2024-02-14T16:19:12;10.00;99.90
17053;DHT22;8643;48.824;11.422;2024-02-14T16:21:41;10.00;99.90
17053;DHT22;8643;48.824;11.422;2024-02-14T16:24:09;9.90;99.90
17053;DHT22;8643;48.824;11.422;2024-02-14T16:26:39;10.00;99.90
17053;DHT22;8643;48.824;11.422;2024-02-14T16:29:08;9.80;99.90
17053;DHT22;8643;48.824;11.422;2024-02-14T16:31:36;9.80;99.90